»·PEaware :: N204LE KEGE-KASE

N204LE :: KEGE-KASE

FLIGHT INFORMATION

Flight Status: Arrived
Operator: Privately registered:
United States
More flights under this callsign
Pilot: Bill F. (18685)
Aircraft: PIPER PA-28R-201 ARROW
(P28R)
More flights by this aircraft type
Origin: KEGE Eagle Co Regl
United States
Destination: KASE Aspen-Pitkin Co/Sardy
United States
More flights between these airports :: More routes between these airports
Route: GYPSM6 RLG DBL
File this flight plan on PilotEdge
Remarks:
Altitude:
(Current/Filed)
15,000ft
Speed:
(Current/Filed)
130kts
Departed: 14-Dec-21 09:21 PM
Arrived: 14-Dec-21 10:05 PM
Distance/Time
Traveled:
25nm/0:43
Distance/Time
To Go:
Arrived

Flight Plot

Page will automatically refresh every two minutes.

Flight plan parsing failed; only flown route is shown


Map Options




Map Legend


Flown Route
Filed Route
Departure Airport
Arrival Airport
Navaid (VOR, NDB)
Fix

Horizontal Profiles

Position Reports

Time Latitude Longitude Heading Altitude Ground
Speed
14-Dec-21 21:03 39.640767 -106.913531 0 6514ft 0kts
14-Dec-21 21:04 39.640767 -106.913531 351 6514ft 0kts
14-Dec-21 21:05 39.640767 -106.913531 351 6514ft 0kts
14-Dec-21 21:06 39.640767 -106.913531 351 6514ft 0kts
14-Dec-21 21:07 39.640767 -106.913531 351 6514ft 0kts
14-Dec-21 21:08 39.640767 -106.913531 351 6514ft 0kts
14-Dec-21 21:09 39.640767 -106.913531 351 6514ft 0kts
14-Dec-21 21:10 39.640767 -106.913531 351 6514ft 0kts
14-Dec-21 21:11 39.640767 -106.913531 351 6514ft 0kts
14-Dec-21 21:12 39.640767 -106.913531 351 6514ft 0kts
14-Dec-21 21:13 39.640767 -106.913531 351 6514ft 0kts
14-Dec-21 21:14 39.640767 -106.913531 351 6514ft 0kts
14-Dec-21 21:15 39.640809 -106.913538 348 6514ft 0kts
14-Dec-21 21:16 39.641375 -106.918542 261 6500ft 22kts
14-Dec-21 21:17 39.640609 -106.925777 262 6481ft 21kts
14-Dec-21 21:17 39.640110 -106.931224 305 6466ft 0kts
14-Dec-21 21:18 39.640110 -106.931224 305 6466ft 0kts
14-Dec-21 21:20 39.640110 -106.931224 305 6466ft 0kts
14-Dec-21 21:21 39.642700 -106.918896 80 6599ft 90kts
14-Dec-21 21:21 39.645298 -106.889241 82 7385ft 107kts
14-Dec-21 21:22 39.649534 -106.849902 91 8382ft 106kts
14-Dec-21 21:23 39.656286 -106.813226 76 9346ft 108kts
14-Dec-21 21:24 39.665785 -106.773216 76 10004ft 122kts
14-Dec-21 21:25 39.678612 -106.730635 80 10735ft 125kts
14-Dec-21 21:26 39.692804 -106.686998 67 10994ft 134kts
14-Dec-21 21:27 39.726920 -106.665058 10 11513ft 143kts
14-Dec-21 21:28 39.765287 -106.644538 21 12162ft 154kts
14-Dec-21 21:29 39.800269 -106.612969 37 12543ft 153kts
14-Dec-21 21:30 39.831703 -106.575243 46 12992ft 157kts
14-Dec-21 21:31 39.864649 -106.537086 38 13050ft 163kts
14-Dec-21 21:32 39.898069 -106.501947 28 13592ft 156kts
14-Dec-21 21:33 39.935789 -106.471242 26 14056ft 162kts
14-Dec-21 21:34 39.979403 -106.435806 29 14110ft 195kts
14-Dec-21 21:35 40.027709 -106.408035 340 14096ft 178kts
14-Dec-21 21:36 40.034493 -106.443065 220 14108ft 118kts
14-Dec-21 21:37 40.005243 -106.461743 210 13953ft 119kts
14-Dec-21 21:38 39.973690 -106.481080 210 14028ft 131kts
14-Dec-21 21:39 39.941176 -106.502463 211 14076ft 127kts
14-Dec-21 21:40 39.909574 -106.523064 210 14092ft 126kts
14-Dec-21 21:41 39.878645 -106.543241 210 14061ft 121kts
14-Dec-21 21:42 39.848259 -106.562995 211 14090ft 130kts
14-Dec-21 21:43 39.815531 -106.584734 210 14190ft 133kts
14-Dec-21 21:44 39.783479 -106.605883 209 14148ft 123kts
14-Dec-21 21:45 39.751985 -106.626588 210 14212ft 128kts
14-Dec-21 21:46 39.720371 -106.647573 210 14258ft 129kts
14-Dec-21 21:47 39.688855 -106.669349 210 14248ft 125kts
14-Dec-21 21:48 39.658952 -106.689982 210 14196ft 120kts
14-Dec-21 21:49 39.628038 -106.711579 210 14260ft 128kts
14-Dec-21 21:50 39.596358 -106.734597 211 14203ft 130kts
14-Dec-21 21:51 39.567437 -106.763779 221 13952ft 135kts
14-Dec-21 21:52 39.539849 -106.795855 221 13579ft 130kts
14-Dec-21 21:53 39.511525 -106.829136 222 13162ft 138kts
14-Dec-21 21:54 39.482181 -106.862816 221 13157ft 140kts
14-Dec-21 21:55 39.453070 -106.895504 237 13140ft 131kts
14-Dec-21 21:56 39.433785 -106.923490 231 13310ft 108kts
14-Dec-21 21:57 39.408432 -106.948052 176 13029ft 130kts
14-Dec-21 21:58 39.375953 -106.936251 175 12549ft 118kts
14-Dec-21 21:59 39.346406 -106.924447 158 10627ft 117kts
14-Dec-21 22:00 39.316235 -106.905523 164 10776ft 136kts
14-Dec-21 22:01 39.279960 -106.891971 169 9552ft 126kts
14-Dec-21 22:02 39.252225 -106.882361 162 8169ft 83kts
14-Dec-21 22:03 39.231429 -106.872767 155 7709ft 67kts
14-Dec-21 22:04 39.225759 -106.869059 89 7734ft 0kts
14-Dec-21 22:05 39.223049 -106.867278 79 7756ft 3kts
14-Dec-21 22:06 39.223075 -106.867172 67 7756ft 0kts
14-Dec-21 22:07 39.223075 -106.867172 67 7756ft 0kts
14-Dec-21 22:08 39.223075 -106.867172 67 7756ft 0kts
14-Dec-21 22:09 39.223075 -106.867172 67 7756ft 0kts
14-Dec-21 22:10 39.223075 -106.867172 67 7756ft 0kts
14-Dec-21 22:11 39.223075 -106.867172 67 7756ft 0kts
14-Dec-21 22:12 39.223075 -106.867172 67 7756ft 0kts
14-Dec-21 22:13 39.223075 -106.867172 67 7756ft 0kts
14-Dec-21 22:14 39.223075 -106.867172 67 7756ft 0kts
14-Dec-21 22:15 39.223075 -106.867172 67 7756ft 0kts
14-Dec-21 22:16 39.223075 -106.867172 67 7756ft 0kts
14-Dec-21 22:17 39.223075 -106.867172 67 7756ft 0kts
14-Dec-21 22:18 39.223075 -106.867172 67 7756ft 0kts

Navigation Log

Ident Type
Flight plan parsing failed, navigation log unavailable